sensor_id;sensor_type;location;lat;lon;timestamp;pressure;altitude;pressure_sealevel;temperature;humidity
65013;BME280;51715;39.432;-77.518;2023-03-18T00:01:07;98170.16;;;17.42;33.58
65013;BME280;51715;39.432;-77.518;2023-03-18T00:03:36;98177.89;;;17.60;34.05
65013;BME280;51715;39.432;-77.518;2023-03-18T00:06:06;98184.66;;;17.66;34.17
65013;BME280;51715;39.432;-77.518;2023-03-18T00:08:36;98176.30;;;17.52;33.95
65013;BME280;51715;39.432;-77.518;2023-03-18T00:11:06;98176.61;;;17.29;34.39
65013;BME280;51715;39.432;-77.518;2023-03-18T00:13:35;98176.14;;;17.71;33.99
65013;BME280;51715;39.432;-77.518;2023-03-18T00:16:10;98181.44;;;17.97;33.45
65013;BME280;51715;39.432;-77.518;2023-03-18T00:18:39;98189.61;;;17.90;33.59
65013;BME280;51715;39.432;-77.518;2023-03-18T00:21:09;98199.36;;;17.89;33.52
65013;BME280;51715;39.432;-77.518;2023-03-18T00:23:38;98209.47;;;17.91;33.34
65013;BME280;51715;39.432;-77.518;2023-03-18T00:26:07;98215.20;;;17.95;33.44
65013;BME280;51715;39.432;-77.518;2023-03-18T00:28:36;98220.91;;;18.10;33.30
65013;BME280;51715;39.432;-77.518;2023-03-18T00:31:06;98224.80;;;18.20;33.16
65013;BME280;51715;39.432;-77.518;2023-03-18T00:33:36;98235.77;;;18.26;33.56
65013;BME280;51715;39.432;-77.518;2023-03-18T00:36:06;98244.45;;;18.30;33.10
65013;BME280;51715;39.432;-77.518;2023-03-18T00:38:36;98253.06;;;18.31;33.07
65013;BME280;51715;39.432;-77.518;2023-03-18T00:41:05;98258.88;;;18.33;33.01
65013;BME280;51715;39.432;-77.518;2023-03-18T00:43:34;98266.36;;;18.32;32.92
65013;BME280;51715;39.432;-77.518;2023-03-18T00:46:02;98273.92;;;18.25;33.34
65013;BME280;51715;39.432;-77.518;2023-03-18T00:48:30;98276.05;;;18.04;33.85
65013;BME280;51715;39.432;-77.518;2023-03-18T00:50:58;98286.14;;;17.76;34.29
65013;BME280;51715;39.432;-77.518;2023-03-18T00:53:26;98292.41;;;17.37;34.42
65013;BME280;51715;39.432;-77.518;2023-03-18T00:55:54;98306.22;;;17.44;34.88
65013;BME280;51715;39.432;-77.518;2023-03-18T00:58:23;98308.90;;;16.71;36.37
65013;BME280;51715;39.432;-77.518;2023-03-18T01:00:52;98307.30;;;17.12;36.33
65013;BME280;51715;39.432;-77.518;2023-03-18T01:03:20;98297.18;;;17.09;37.57
65013;BME280;51715;39.432;-77.518;2023-03-18T01:05:48;98289.22;;;17.11;38.72
65013;BME280;51715;39.432;-77.518;2023-03-18T01:08:17;98288.00;;;16.68;40.53
65013;BME280;51715;39.432;-77.518;2023-03-18T01:10:45;98281.66;;;16.25;41.73
65013;BME280;51715;39.432;-77.518;2023-03-18T01:13:15;98281.64;;;16.08;41.98
65013;BME280;51715;39.432;-77.518;2023-03-18T01:15:43;98285.61;;;16.20;42.00
65013;BME280;51715;39.432;-77.518;2023-03-18T01:18:12;98284.86;;;16.04;43.23
65013;BME280;51715;39.432;-77.518;2023-03-18T01:20:40;98290.90;;;15.34;44.26
65013;BME280;51715;39.432;-77.518;2023-03-18T01:23:08;98291.77;;;15.75;44.53
65013;BME280;51715;39.432;-77.518;2023-03-18T01:25:37;98298.42;;;15.31;44.64
65013;BME280;51715;39.432;-77.518;2023-03-18T01:28:06;98307.86;;;15.44;44.63
65013;BME280;51715;39.432;-77.518;2023-03-18T01:30:35;98320.12;;;15.55;44.56
65013;BME280;51715;39.432;-77.518;2023-03-18T01:33:04;98323.18;;;15.60;44.77
65013;BME280;51715;39.432;-77.518;2023-03-18T01:35:34;98320.85;;;15.63;44.94
65013;BME280;51715;39.432;-77.518;2023-03-18T01:38:04;98332.66;;;15.73;44.98
65013;BME280;51715;39.432;-77.518;2023-03-18T01:40:34;98339.45;;;15.75;44.93
65013;BME280;51715;39.432;-77.518;2023-03-18T01:43:13;98344.81;;;15.80;45.00
65013;BME280;51715;39.432;-77.518;2023-03-18T01:45:45;98348.11;;;15.85;45.02
65013;BME280;51715;39.432;-77.518;2023-03-18T01:48:16;98361.62;;;15.91;45.07
65013;BME280;51715;39.432;-77.518;2023-03-18T01:50:46;98380.75;;;15.76;45.16
65013;BME280;51715;39.432;-77.518;2023-03-18T01:53:18;98379.05;;;15.42;45.97
65013;BME280;51715;39.432;-77.518;2023-03-18T01:55:49;98370.36;;;15.14;46.25
65013;BME280;51715;39.432;-77.518;2023-03-18T01:58:21;98374.24;;;14.20;48.48
65013;BME280;51715;39.432;-77.518;2023-03-18T02:00:56;98375.38;;;13.38;50.93
65013;BME280;51715;39.432;-77.518;2023-03-18T02:03:26;98378.50;;;13.77;49.57
65013;BME280;51715;39.432;-77.518;2023-03-18T02:05:56;98377.04;;;13.81;49.93
65013;BME280;51715;39.432;-77.518;2023-03-18T02:08:24;98375.77;;;13.43;49.98
65013;BME280;51715;39.432;-77.518;2023-03-18T02:10:53;98376.88;;;14.14;49.49
65013;BME280;51715;39.432;-77.518;2023-03-18T02:13:22;98385.16;;;13.61;49.62
65013;BME280;51715;39.432;-77.518;2023-03-18T02:15:58;98400.05;;;14.10;48.79
65013;BME280;51715;39.432;-77.518;2023-03-18T02:18:33;98413.23;;;14.36;48.44
65013;BME280;51715;39.432;-77.518;2023-03-18T02:21:18;98427.55;;;13.68;49.28
65013;BME280;51715;39.432;-77.518;2023-03-18T02:23:57;98445.41;;;13.84;49.14
65013;BME280;51715;39.432;-77.518;2023-03-18T02:26:32;98446.59;;;13.58;49.29
65013;BME280;51715;39.432;-77.518;2023-03-18T02:29:04;98457.82;;;12.86;50.39
65013;BME280;51715;39.432;-77.518;2023-03-18T02:31:36;98480.08;;;11.46;53.06
65013;BME280;51715;39.432;-77.518;2023-03-18T02:34:07;98484.14;;;11.36;53.13
65013;BME280;51715;39.432;-77.518;2023-03-18T02:36:37;98496.19;;;10.70;53.32
65013;BME280;51715;39.432;-77.518;2023-03-18T02:39:05;98502.74;;;10.80;52.63
65013;BME280;51715;39.432;-77.518;2023-03-18T02:41:35;98500.08;;;10.31;52.67
65013;BME280;51715;39.432;-77.518;2023-03-18T02:44:04;98501.89;;;10.21;53.72
65013;BME280;51715;39.432;-77.518;2023-03-18T02:46:39;98502.47;;;10.38;53.06
65013;BME280;51715;39.432;-77.518;2023-03-18T02:49:10;98501.03;;;10.92;50.86
65013;BME280;51715;39.432;-77.518;2023-03-18T02:51:39;98500.05;;;10.72;50.07
65013;BME280;51715;39.432;-77.518;2023-03-18T02:54:10;98502.70;;;10.89;49.94
65013;BME280;51715;39.432;-77.518;2023-03-18T02:56:40;98501.36;;;11.64;48.81
65013;BME280;51715;39.432;-77.518;2023-03-18T02:59:10;98506.22;;;11.29;48.02
65013;BME280;51715;39.432;-77.518;2023-03-18T03:01:41;98518.84;;;11.55;48.93
65013;BME280;51715;39.432;-77.518;2023-03-18T03:04:12;98519.67;;;11.61;47.82
65013;BME280;51715;39.432;-77.518;2023-03-18T03:06:41;98523.95;;;11.70;45.96
65013;BME280;51715;39.432;-77.518;2023-03-18T03:09:12;98532.48;;;11.20;45.41
65013;BME280;51715;39.432;-77.518;2023-03-18T03:11:42;98534.94;;;10.97;44.86
65013;BME280;51715;39.432;-77.518;2023-03-18T03:14:13;98542.33;;;10.44;46.21
65013;BME280;51715;39.432;-77.518;2023-03-18T03:16:41;98552.28;;;10.17;46.67
65013;BME280;51715;39.432;-77.518;2023-03-18T03:19:10;98556.16;;;9.69;46.58
65013;BME280;51715;39.432;-77.518;2023-03-18T03:21:39;98548.74;;;10.18;45.45
65013;BME280;51715;39.432;-77.518;2023-03-18T03:24:07;98553.26;;;9.06;45.79
65013;BME280;51715;39.432;-77.518;2023-03-18T03:26:35;98558.01;;;8.70;46.03
65013;BME280;51715;39.432;-77.518;2023-03-18T03:29:05;98568.26;;;8.97;45.57
65013;BME280;51715;39.432;-77.518;2023-03-18T03:31:34;98576.11;;;9.57;44.12
65013;BME280;51715;39.432;-77.518;2023-03-18T03:34:02;98576.28;;;9.03;43.74
65013;BME280;51715;39.432;-77.518;2023-03-18T03:36:31;98581.75;;;9.37;43.48
65013;BME280;51715;39.432;-77.518;2023-03-18T03:38:59;98580.28;;;9.17;43.23
65013;BME280;51715;39.432;-77.518;2023-03-18T03:41:28;98596.67;;;8.78;43.76
65013;BME280;51715;39.432;-77.518;2023-03-18T03:43:56;98589.86;;;8.14;44.11
65013;BME280;51715;39.432;-77.518;2023-03-18T03:46:25;98595.87;;;8.01;42.90
65013;BME280;51715;39.432;-77.518;2023-03-18T03:48:52;98616.48;;;8.39;42.93
65013;BME280;51715;39.432;-77.518;2023-03-18T03:51:21;98625.54;;;8.25;42.91
65013;BME280;51715;39.432;-77.518;2023-03-18T03:53:50;98639.24;;;7.74;43.15
65013;BME280;51715;39.432;-77.518;2023-03-18T03:56:20;98649.90;;;7.60;43.79
65013;BME280;51715;39.432;-77.518;2023-03-18T03:58:48;98656.93;;;7.51;42.47
65013;BME280;51715;39.432;-77.518;2023-03-18T04:04:09;98674.43;;;8.60;39.91
65013;BME280;51715;39.432;-77.518;2023-03-18T04:06:38;98673.13;;;9.13;38.40
65013;BME280;51715;39.432;-77.518;2023-03-18T04:09:05;98677.61;;;8.75;38.85
65013;BME280;51715;39.432;-77.518;2023-03-18T04:11:34;98690.18;;;8.33;39.23
65013;BME280;51715;39.432;-77.518;2023-03-18T04:14:02;98702.72;;;9.48;38.47
65013;BME280;51715;39.432;-77.518;2023-03-18T04:16:31;98697.83;;;8.84;38.28
65013;BME280;51715;39.432;-77.518;2023-03-18T04:18:59;98702.14;;;8.19;38.62
65013;BME280;51715;39.432;-77.518;2023-03-18T04:21:28;98703.32;;;7.93;38.30
65013;BME280;51715;39.432;-77.518;2023-03-18T04:23:57;98695.31;;;7.54;39.29
65013;BME280;51715;39.432;-77.518;2023-03-18T04:26:26;98682.20;;;6.25;42.08
65013;BME280;51715;39.432;-77.518;2023-03-18T04:28:54;98675.93;;;7.02;40.94
65013;BME280;51715;39.432;-77.518;2023-03-18T04:31:24;98667.30;;;7.34;39.57
65013;BME280;51715;39.432;-77.518;2023-03-18T04:33:52;98661.51;;;7.25;39.33
65013;BME280;51715;39.432;-77.518;2023-03-18T04:36:20;98652.94;;;6.59;41.45
65013;BME280;51715;39.432;-77.518;2023-03-18T04:38:49;98663.22;;;6.73;40.96
65013;BME280;51715;39.432;-77.518;2023-03-18T04:41:18;98654.68;;;7.63;39.46
65013;BME280;51715;39.432;-77.518;2023-03-18T04:43:46;98659.20;;;6.84;40.52
65013;BME280;51715;39.432;-77.518;2023-03-18T04:46:14;98683.50;;;6.06;41.59
65013;BME280;51715;39.432;-77.518;2023-03-18T04:48:43;98695.85;;;7.20;39.31
65013;BME280;51715;39.432;-77.518;2023-03-18T04:51:12;98707.22;;;7.31;38.39
65013;BME280;51715;39.432;-77.518;2023-03-18T04:53:40;98730.39;;;7.53;39.85
65013;BME280;51715;39.432;-77.518;2023-03-18T04:56:08;98745.00;;;8.27;37.15
65013;BME280;51715;39.432;-77.518;2023-03-18T04:58:37;98748.36;;;8.08;36.66
65013;BME280;51715;39.432;-77.518;2023-03-18T05:01:05;98742.69;;;8.69;35.74
65013;BME280;51715;39.432;-77.518;2023-03-18T05:03:34;98735.92;;;9.09;35.49
65013;BME280;51715;39.432;-77.518;2023-03-18T05:06:03;98725.07;;;8.60;36.03
65013;BME280;51715;39.432;-77.518;2023-03-18T05:08:32;98724.63;;;8.81;36.10
65013;BME280;51715;39.432;-77.518;2023-03-18T05:11:00;98718.28;;;8.82;35.66
65013;BME280;51715;39.432;-77.518;2023-03-18T05:13:28;98696.82;;;7.80;36.69
65013;BME280;51715;39.432;-77.518;2023-03-18T05:15:56;98689.08;;;8.07;37.56
65013;BME280;51715;39.432;-77.518;2023-03-18T05:18:24;98681.21;;;7.43;38.50
65013;BME280;51715;39.432;-77.518;2023-03-18T05:20:52;98688.56;;;7.91;37.51
65013;BME280;51715;39.432;-77.518;2023-03-18T05:23:25;98695.28;;;7.91;37.64
65013;BME280;51715;39.432;-77.518;2023-03-18T05:25:54;98717.06;;;8.23;36.95
65013;BME280;51715;39.432;-77.518;2023-03-18T05:28:22;98733.13;;;7.09;38.31
65013;BME280;51715;39.432;-77.518;2023-03-18T05:30:51;98732.46;;;7.14;39.60
65013;BME280;51715;39.432;-77.518;2023-03-18T05:33:19;98730.41;;;7.53;37.89
65013;BME280;51715;39.432;-77.518;2023-03-18T05:35:48;98726.64;;;7.50;37.41
65013;BME280;51715;39.432;-77.518;2023-03-18T05:38:16;98724.00;;;8.17;36.69
65013;BME280;51715;39.432;-77.518;2023-03-18T05:40:44;98725.22;;;8.09;36.40
65013;BME280;51715;39.432;-77.518;2023-03-18T05:43:12;98712.73;;;7.95;36.77
65013;BME280;51715;39.432;-77.518;2023-03-18T05:45:40;98710.83;;;7.28;37.52
65013;BME280;51715;39.432;-77.518;2023-03-18T05:48:08;98696.94;;;7.48;36.80
65013;BME280;51715;39.432;-77.518;2023-03-18T05:50:39;98703.17;;;7.27;37.50
65013;BME280;51715;39.432;-77.518;2023-03-18T05:53:09;98716.58;;;7.03;37.62
65013;BME280;51715;39.432;-77.518;2023-03-18T05:55:39;98719.92;;;5.69;39.67
65013;BME280;51715;39.432;-77.518;2023-03-18T05:58:07;98716.87;;;5.60;39.96
65013;BME280;51715;39.432;-77.518;2023-03-18T06:00:35;98714.08;;;6.00;38.22
65013;BME280;51715;39.432;-77.518;2023-03-18T06:03:03;98725.07;;;5.99;38.88
65013;BME280;51715;39.432;-77.518;2023-03-18T06:05:31;98726.71;;;6.56;37.46
65013;BME280;51715;39.432;-77.518;2023-03-18T06:08:00;98733.47;;;6.69;37.00
65013;BME280;51715;39.432;-77.518;2023-03-18T06:10:28;98729.73;;;6.98;36.23
65013;BME280;51715;39.432;-77.518;2023-03-18T06:12:57;98733.53;;;7.19;35.57
65013;BME280;51715;39.432;-77.518;2023-03-18T06:15:26;98726.62;;;6.43;36.38
65013;BME280;51715;39.432;-77.518;2023-03-18T06:17:54;98741.80;;;6.42;36.33
65013;BME280;51715;39.432;-77.518;2023-03-18T06:20:23;98743.81;;;6.58;35.73
65013;BME280;51715;39.432;-77.518;2023-03-18T06:22:52;98734.79;;;7.04;35.15
65013;BME280;51715;39.432;-77.518;2023-03-18T06:25:21;98726.88;;;7.87;33.64
65013;BME280;51715;39.432;-77.518;2023-03-18T06:27:50;98721.44;;;7.46;34.33
65013;BME280;51715;39.432;-77.518;2023-03-18T06:30:18;98709.12;;;6.48;35.03
65013;BME280;51715;39.432;-77.518;2023-03-18T06:32:48;98701.08;;;6.82;35.09
65013;BME280;51715;39.432;-77.518;2023-03-18T06:35:16;98689.29;;;6.20;36.38
65013;BME280;51715;39.432;-77.518;2023-03-18T06:37:44;98682.83;;;5.92;36.58
65013;BME280;51715;39.432;-77.518;2023-03-18T06:40:12;98686.20;;;5.85;36.42
65013;BME280;51715;39.432;-77.518;2023-03-18T06:42:40;98704.12;;;5.81;36.94
65013;BME280;51715;39.432;-77.518;2023-03-18T06:45:09;98718.21;;;6.18;35.71
65013;BME280;51715;39.432;-77.518;2023-03-18T06:47:38;98729.80;;;6.15;36.06
65013;BME280;51715;39.432;-77.518;2023-03-18T06:50:07;98721.43;;;6.06;35.77
65013;BME280;51715;39.432;-77.518;2023-03-18T06:52:35;98706.64;;;5.87;36.32
65013;BME280;51715;39.432;-77.518;2023-03-18T06:55:04;98686.07;;;5.39;37.28
65013;BME280;51715;39.432;-77.518;2023-03-18T06:57:33;98669.00;;;4.84;37.66
65013;BME280;51715;39.432;-77.518;2023-03-18T07:00:00;98670.83;;;5.00;38.28
65013;BME280;51715;39.432;-77.518;2023-03-18T07:02:29;98680.82;;;4.22;39.19
65013;BME280;51715;39.432;-77.518;2023-03-18T07:04:58;98673.73;;;4.20;39.26
65013;BME280;51715;39.432;-77.518;2023-03-18T07:07:26;98686.16;;;4.47;38.42
65013;BME280;51715;39.432;-77.518;2023-03-18T07:09:56;98687.79;;;4.46;38.41
65013;BME280;51715;39.432;-77.518;2023-03-18T07:12:24;98720.51;;;3.93;38.55
65013;BME280;51715;39.432;-77.518;2023-03-18T07:14:52;98734.54;;;4.33;38.85
65013;BME280;51715;39.432;-77.518;2023-03-18T07:17:22;98745.52;;;5.18;36.60
65013;BME280;51715;39.432;-77.518;2023-03-18T07:19:51;98771.60;;;5.46;37.22
65013;BME280;51715;39.432;-77.518;2023-03-18T07:22:19;98766.74;;;3.53;39.71
65013;BME280;51715;39.432;-77.518;2023-03-18T07:24:48;98765.61;;;4.16;38.16
65013;BME280;51715;39.432;-77.518;2023-03-18T07:27:16;98775.58;;;5.20;36.40
65013;BME280;51715;39.432;-77.518;2023-03-18T07:29:44;98780.71;;;5.99;34.73
65013;BME280;51715;39.432;-77.518;2023-03-18T07:32:13;98777.82;;;5.80;34.74
65013;BME280;51715;39.432;-77.518;2023-03-18T07:34:41;98778.88;;;6.22;34.41
65013;BME280;51715;39.432;-77.518;2023-03-18T07:37:09;98768.66;;;6.80;33.55
65013;BME280;51715;39.432;-77.518;2023-03-18T07:39:38;98753.49;;;6.30;33.73
65013;BME280;51715;39.432;-77.518;2023-03-18T07:42:08;98734.02;;;6.16;33.70
65013;BME280;51715;39.432;-77.518;2023-03-18T07:44:36;98720.42;;;6.29;33.88
65013;BME280;51715;39.432;-77.518;2023-03-18T07:47:05;98724.58;;;5.56;35.86
65013;BME280;51715;39.432;-77.518;2023-03-18T07:49:34;98732.43;;;5.13;35.45
65013;BME280;51715;39.432;-77.518;2023-03-18T07:52:03;98727.59;;;5.91;34.55
65013;BME280;51715;39.432;-77.518;2023-03-18T07:54:31;98738.00;;;6.32;33.97
65013;BME280;51715;39.432;-77.518;2023-03-18T07:56:59;98743.36;;;7.12;32.60
65013;BME280;51715;39.432;-77.518;2023-03-18T07:59:27;98756.23;;;6.32;33.18
65013;BME280;51715;39.432;-77.518;2023-03-18T08:01:56;98749.79;;;6.06;34.02
65013;BME280;51715;39.432;-77.518;2023-03-18T08:04:24;98767.65;;;5.84;33.92
65013;BME280;51715;39.432;-77.518;2023-03-18T08:06:52;98778.01;;;6.12;33.79
65013;BME280;51715;39.432;-77.518;2023-03-18T08:09:21;98792.16;;;4.94;34.34
65013;BME280;51715;39.432;-77.518;2023-03-18T08:11:49;98785.89;;;5.92;33.40
65013;BME280;51715;39.432;-77.518;2023-03-18T08:14:17;98781.48;;;5.93;33.44
65013;BME280;51715;39.432;-77.518;2023-03-18T08:16:46;98783.99;;;5.65;33.52
65013;BME280;51715;39.432;-77.518;2023-03-18T08:19:15;98791.28;;;5.39;34.59
65013;BME280;51715;39.432;-77.518;2023-03-18T08:21:44;98790.12;;;5.74;33.25
65013;BME280;51715;39.432;-77.518;2023-03-18T08:24:12;98787.46;;;4.98;34.16
65013;BME280;51715;39.432;-77.518;2023-03-18T08:26:40;98775.18;;;5.52;34.18
65013;BME280;51715;39.432;-77.518;2023-03-18T08:29:08;98769.49;;;5.02;34.11
65013;BME280;51715;39.432;-77.518;2023-03-18T08:31:37;98768.04;;;5.58;34.29
65013;BME280;51715;39.432;-77.518;2023-03-18T08:34:06;98768.80;;;5.15;34.58
65013;BME280;51715;39.432;-77.518;2023-03-18T08:36:36;98766.56;;;5.95;33.68
65013;BME280;51715;39.432;-77.518;2023-03-18T08:39:05;98770.17;;;5.65;33.73
65013;BME280;51715;39.432;-77.518;2023-03-18T08:41:32;98775.00;;;6.59;32.49
65013;BME280;51715;39.432;-77.518;2023-03-18T08:44:01;98778.23;;;6.84;32.42
65013;BME280;51715;39.432;-77.518;2023-03-18T08:46:29;98772.29;;;5.99;33.11
65013;BME280;51715;39.432;-77.518;2023-03-18T08:48:58;98782.43;;;6.28;33.16
65013;BME280;51715;39.432;-77.518;2023-03-18T08:51:26;98789.55;;;6.46;32.87
65013;BME280;51715;39.432;-77.518;2023-03-18T08:53:55;98785.40;;;6.00;33.00
65013;BME280;51715;39.432;-77.518;2023-03-18T08:56:23;98778.66;;;5.79;33.21
65013;BME280;51715;39.432;-77.518;2023-03-18T08:58:52;98781.15;;;6.33;33.07
65013;BME280;51715;39.432;-77.518;2023-03-18T09:01:20;98788.64;;;6.37;32.71
65013;BME280;51715;39.432;-77.518;2023-03-18T09:03:48;98795.07;;;5.60;33.45
65013;BME280;51715;39.432;-77.518;2023-03-18T09:06:17;98803.17;;;5.97;32.84
65013;BME280;51715;39.432;-77.518;2023-03-18T09:08:45;98816.76;;;5.92;32.22
65013;BME280;51715;39.432;-77.518;2023-03-18T09:11:14;98816.26;;;4.59;34.38
65013;BME280;51715;39.432;-77.518;2023-03-18T09:13:42;98815.62;;;5.21;33.36
65013;BME280;51715;39.432;-77.518;2023-03-18T09:16:10;98827.22;;;5.47;32.70
65013;BME280;51715;39.432;-77.518;2023-03-18T09:18:38;98835.43;;;5.94;32.32
65013;BME280;51715;39.432;-77.518;2023-03-18T09:21:07;98836.40;;;5.31;32.73
65013;BME280;51715;39.432;-77.518;2023-03-18T09:23:36;98843.55;;;5.34;33.13
65013;BME280;51715;39.432;-77.518;2023-03-18T09:26:04;98853.01;;;5.15;32.50
65013;BME280;51715;39.432;-77.518;2023-03-18T09:28:33;98866.78;;;5.38;33.06
65013;BME280;51715;39.432;-77.518;2023-03-18T09:31:02;98872.95;;;5.19;33.45
65013;BME280;51715;39.432;-77.518;2023-03-18T09:33:31;98878.21;;;5.68;32.25
65013;BME280;51715;39.432;-77.518;2023-03-18T09:36:00;98884.17;;;5.79;31.98
65013;BME280;51715;39.432;-77.518;2023-03-18T09:38:28;98898.29;;;5.20;33.24
65013;BME280;51715;39.432;-77.518;2023-03-18T09:41:04;98897.73;;;5.89;31.93
65013;BME280;51715;39.432;-77.518;2023-03-18T09:43:45;98893.47;;;6.24;32.24
65013;BME280;51715;39.432;-77.518;2023-03-18T09:46:24;98904.90;;;5.92;31.76
65013;BME280;51715;39.432;-77.518;2023-03-18T09:50:08;98893.51;;;6.67;30.49
65013;BME280;51715;39.432;-77.518;2023-03-18T09:52:44;98887.51;;;6.54;30.76
65013;BME280;51715;39.432;-77.518;2023-03-18T09:55:20;98881.85;;;6.98;30.46
65013;BME280;51715;39.432;-77.518;2023-03-18T09:57:55;98891.49;;;7.25;30.36
65013;BME280;51715;39.432;-77.518;2023-03-18T10:00:29;98890.29;;;7.15;30.25
65013;BME280;51715;39.432;-77.518;2023-03-18T10:03:02;98879.92;;;6.23;31.08
65013;BME280;51715;39.432;-77.518;2023-03-18T10:05:36;98884.86;;;6.93;30.74
65013;BME280;51715;39.432;-77.518;2023-03-18T10:08:12;98872.82;;;7.22;29.94
65013;BME280;51715;39.432;-77.518;2023-03-18T10:10:44;98863.39;;;6.59;30.11
65013;BME280;51715;39.432;-77.518;2023-03-18T10:13:18;98866.72;;;6.63;30.75
65013;BME280;51715;39.432;-77.518;2023-03-18T10:15:52;98860.16;;;6.87;30.51
65013;BME280;51715;39.432;-77.518;2023-03-18T10:18:26;98862.12;;;6.60;30.72
65013;BME280;51715;39.432;-77.518;2023-03-18T10:21:03;98861.70;;;6.73;30.01
65013;BME280;51715;39.432;-77.518;2023-03-18T10:23:42;98868.70;;;6.18;31.21
65013;BME280;51715;39.432;-77.518;2023-03-18T10:26:18;98869.13;;;7.22;30.14
65013;BME280;51715;39.432;-77.518;2023-03-18T10:28:59;98878.17;;;6.83;30.44
65013;BME280;51715;39.432;-77.518;2023-03-18T10:31:43;98890.05;;;7.16;29.80
65013;BME280;51715;39.432;-77.518;2023-03-18T10:34:17;98895.80;;;7.08;29.59
65013;BME280;51715;39.432;-77.518;2023-03-18T10:36:53;98893.46;;;6.80;30.04
65013;BME280;51715;39.432;-77.518;2023-03-18T10:39:24;98900.73;;;7.35;29.17
65013;BME280;51715;39.432;-77.518;2023-03-18T10:41:54;98893.40;;;7.85;28.79
65013;BME280;51715;39.432;-77.518;2023-03-18T10:44:28;98897.98;;;7.38;29.13
65013;BME280;51715;39.432;-77.518;2023-03-18T10:47:02;98904.04;;;7.08;29.66
65013;BME280;51715;39.432;-77.518;2023-03-18T10:49:41;98907.31;;;7.61;29.09
65013;BME280;51715;39.432;-77.518;2023-03-18T10:52:16;98904.30;;;7.25;28.55
65013;BME280;51715;39.432;-77.518;2023-03-18T10:54:46;98912.45;;;7.90;28.71
65013;BME280;51715;39.432;-77.518;2023-03-18T10:57:16;98917.32;;;7.05;29.56
65013;BME280;51715;39.432;-77.518;2023-03-18T10:59:45;98920.55;;;6.66;29.67
65013;BME280;51715;39.432;-77.518;2023-03-18T11:02:16;98929.69;;;7.12;29.96
65013;BME280;51715;39.432;-77.518;2023-03-18T11:04:48;98936.61;;;6.83;30.39
65013;BME280;51715;39.432;-77.518;2023-03-18T11:07:22;98936.31;;;7.07;30.46
65013;BME280;51715;39.432;-77.518;2023-03-18T11:09:52;98940.74;;;6.93;29.74
65013;BME280;51715;39.432;-77.518;2023-03-18T11:12:24;98944.79;;;6.49;30.23
65013;BME280;51715;39.432;-77.518;2023-03-18T11:14:54;98957.03;;;6.82;30.49
65013;BME280;51715;39.432;-77.518;2023-03-18T11:17:26;98965.16;;;6.21;31.00
65013;BME280;51715;39.432;-77.518;2023-03-18T11:20:05;98969.33;;;6.09;31.33
65013;BME280;51715;39.432;-77.518;2023-03-18T11:22:34;98977.00;;;6.09;31.55
65013;BME280;51715;39.432;-77.518;2023-03-18T11:25:11;98977.79;;;6.41;31.33
65013;BME280;51715;39.432;-77.518;2023-03-18T11:27:41;98987.35;;;6.73;31.07
65013;BME280;51715;39.432;-77.518;2023-03-18T11:30:14;98989.36;;;6.45;30.64
65013;BME280;51715;39.432;-77.518;2023-03-18T11:32:52;98980.21;;;6.26;31.55
65013;BME280;51715;39.432;-77.518;2023-03-18T11:35:22;98983.64;;;6.84;30.65
65013;BME280;51715;39.432;-77.518;2023-03-18T11:37:51;98982.19;;;7.00;29.72
65013;BME280;51715;39.432;-77.518;2023-03-18T11:40:23;98981.23;;;6.94;30.03
65013;BME280;51715;39.432;-77.518;2023-03-18T11:42:57;98996.70;;;5.13;32.41
65013;BME280;51715;39.432;-77.518;2023-03-18T11:46:01;98999.29;;;6.24;30.99
65013;BME280;51715;39.432;-77.518;2023-03-18T11:48:33;99007.54;;;6.19;30.80
65013;BME280;51715;39.432;-77.518;2023-03-18T11:51:15;99008.49;;;6.48;30.28
65013;BME280;51715;39.432;-77.518;2023-03-18T11:54:03;99001.13;;;6.33;29.97
65013;BME280;51715;39.432;-77.518;2023-03-18T11:56:40;99003.98;;;5.75;30.47
65013;BME280;51715;39.432;-77.518;2023-03-18T11:59:25;99003.45;;;6.17;30.11
65013;BME280;51715;39.432;-77.518;2023-03-18T12:02:05;98994.78;;;5.84;30.50
65013;BME280;51715;39.432;-77.518;2023-03-18T12:04:52;98995.22;;;6.52;29.70
65013;BME280;51715;39.432;-77.518;2023-03-18T12:07:34;98995.75;;;6.15;29.86
65013;BME280;51715;39.432;-77.518;2023-03-18T12:10:16;98991.23;;;5.69;29.92
65013;BME280;51715;39.432;-77.518;2023-03-18T12:12:57;98995.14;;;5.40;30.15
65013;BME280;51715;39.432;-77.518;2023-03-18T12:15:37;99000.25;;;5.83;28.74
65013;BME280;51715;39.432;-77.518;2023-03-18T12:18:22;99008.66;;;5.37;28.76
65013;BME280;51715;39.432;-77.518;2023-03-18T12:20:55;99001.29;;;5.66;28.85
65013;BME280;51715;39.432;-77.518;2023-03-18T12:23:44;99002.69;;;4.61;31.71
65013;BME280;51715;39.432;-77.518;2023-03-18T12:26:24;99005.23;;;4.29;31.47
65013;BME280;51715;39.432;-77.518;2023-03-18T12:29:15;99014.17;;;4.35;30.72
65013;BME280;51715;39.432;-77.518;2023-03-18T12:31:54;99024.00;;;4.90;30.47
65013;BME280;51715;39.432;-77.518;2023-03-18T12:34:40;99037.09;;;4.91;30.19
65013;BME280;51715;39.432;-77.518;2023-03-18T12:37:25;99032.87;;;5.17;30.08
65013;BME280;51715;39.432;-77.518;2023-03-18T12:40:36;99028.93;;;5.03;29.22
65013;BME280;51715;39.432;-77.518;2023-03-18T12:43:34;99037.52;;;6.18;28.83
65013;BME280;51715;39.432;-77.518;2023-03-18T12:46:13;99038.02;;;5.91;28.52
65013;BME280;51715;39.432;-77.518;2023-03-18T12:48:51;99051.09;;;6.38;28.59
65013;BME280;51715;39.432;-77.518;2023-03-18T12:51:27;99045.69;;;6.04;28.81
65013;BME280;51715;39.432;-77.518;2023-03-18T12:54:09;99050.04;;;6.50;27.89
65013;BME280;51715;39.432;-77.518;2023-03-18T12:56:44;99049.50;;;5.94;28.48
65013;BME280;51715;39.432;-77.518;2023-03-18T12:59:18;99047.33;;;6.00;28.81
65013;BME280;51715;39.432;-77.518;2023-03-18T13:01:56;99052.67;;;6.17;28.63
65013;BME280;51715;39.432;-77.518;2023-03-18T13:04:32;99048.83;;;5.73;28.40
65013;BME280;51715;39.432;-77.518;2023-03-18T13:07:08;99048.41;;;6.37;28.66
65013;BME280;51715;39.432;-77.518;2023-03-18T13:09:44;99047.23;;;6.93;27.17
65013;BME280;51715;39.432;-77.518;2023-03-18T13:12:16;99063.47;;;6.41;27.83